Time;durP1;ratioP1;P1;durP2;ratioP2;P2;SDS_P1;SDS_P2;PMS_P1;PMS_P2;Temp;Humidity;BMP_temperature;BMP_pressure;BME280_temperature;BME280_humidity;BME280_pressure;Samples;Min_cycle;Max_cycle;Signal;HPM_P1;HPM_P2
2022/03/07 00:00:00;;;;;;;2.33;1.30;;;;;;;0.22;51.93;98610.94;5032895;28;20180;-59
2022/03/07 00:02:28;;;;;;;4.63;1.40;;;;;;;0.17;52.14;98607.44;5032781;28;20490;-60
2022/03/07 00:04:57;;;;;;;4.03;1.40;;;;;;;0.23;51.75;98604.34;5032549;28;20076;-59
2022/03/07 00:07:24;;;;;;;3.00;1.20;;;;;;;0.28;51.81;98603.47;5032577;28;20096;-59
2022/03/07 00:09:51;;;;;;;3.47;1.10;;;;;;;0.19;52.39;98600.56;5032495;28;20140;-56
2022/03/07 00:12:18;;;;;;;1.67;1.10;;;;;;;0.18;52.52;98609.88;5032370;28;20054;-59
2022/03/07 00:14:45;;;;;;;2.55;1.50;;;;;;;0.25;52.12;98610.34;5032475;28;20424;-57
2022/03/07 00:17:12;;;;;;;1.75;1.00;;;;;;;0.27;52.18;98613.63;5033086;28;20500;-59
2022/03/07 00:19:39;;;;;;;2.85;1.20;;;;;;;0.27;52.13;98599.94;5035279;28;20079;-58
2022/03/07 00:22:06;;;;;;;1.73;1.00;;;;;;;0.31;52.24;98605.63;5032228;28;20513;-59
2022/03/07 00:24:33;;;;;;;3.67;1.08;;;;;;;0.31;52.16;98592.78;5036288;28;20049;-59
2022/03/07 00:26:59;;;;;;;2.97;1.40;;;;;;;0.31;52.12;98598.25;5036177;28;20432;-59
2022/03/07 00:29:27;;;;;;;2.30;1.17;;;;;;;0.32;52.46;98588.16;5036258;28;20163;-60
2022/03/07 00:31:54;;;;;;;2.08;1.27;;;;;;;0.36;52.14;98586.44;5035976;28;20060;-59
2022/03/07 00:34:21;;;;;;;1.83;1.10;;;;;;;0.36;52.35;98587.28;5035838;28;20076;-59
2022/03/07 00:36:48;;;;;;;2.17;1.23;;;;;;;0.33;52.39;98584.28;5036720;28;20084;-59
2022/03/07 00:39:15;;;;;;;4.20;1.20;;;;;;;0.36;52.36;98578.25;5053448;28;20136;-60
2022/03/07 00:41:42;;;;;;;3.50;1.00;;;;;;;0.33;52.57;98576.91;5040634;28;20411;-60
2022/03/07 00:44:09;;;;;;;1.48;1.00;;;;;;;0.35;52.47;98576.63;5042841;28;20049;-59
2022/03/07 00:46:37;;;;;;;1.70;1.15;;;;;;;0.23;52.80;98563.34;5036047;28;20049;-59
2022/03/07 00:49:04;;;;;;;4.15;1.13;;;;;;;0.26;52.95;98573.69;5035451;28;20046;-60
2022/03/07 00:51:31;;;;;;;2.05;1.00;;;;;;;0.26;52.90;98568.22;5036031;28;20128;-60
2022/03/07 00:53:58;;;;;;;2.83;1.42;;;;;;;0.30;53.01;98574.75;5025841;28;20046;-61
2022/03/07 00:56:25;;;;;;;3.63;1.08;;;;;;;0.30;52.78;98569.28;5036123;28;20060;-60
2022/03/07 00:58:52;;;;;;;2.70;1.20;;;;;;;0.29;52.79;98564.91;5035323;28;20211;-63
2022/03/07 01:01:19;;;;;;;3.35;1.20;;;;;;;0.27;52.98;98567.13;5036060;28;20057;-60
2022/03/07 01:03:46;;;;;;;3.60;1.50;;;;;;;0.31;52.84;98570.09;5035190;28;20497;-60
2022/03/07 01:06:13;;;;;;;2.92;1.35;;;;;;;0.29;53.10;98561.38;5035485;28;20398;-61
2022/03/07 01:08:40;;;;;;;1.63;1.05;;;;;;;0.31;53.03;98559.97;5043255;28;20051;-60
2022/03/07 01:11:07;;;;;;;1.90;1.20;;;;;;;0.34;52.88;98559.38;5035284;28;20140;-60
2022/03/07 01:13:34;;;;;;;2.00;1.20;;;;;;;0.38;52.81;98562.38;5017657;28;20132;-61
2022/03/07 01:16:02;;;;;;;1.50;0.93;;;;;;;0.38;52.89;98554.16;5035103;28;20235;-60
2022/03/07 01:18:29;;;;;;;1.23;0.80;;;;;;;0.35;53.07;98557.47;5045525;28;20091;-60
2022/03/07 01:20:56;;;;;;;2.88;0.90;;;;;;;0.34;52.78;98556.66;5023975;28;20072;-61
2022/03/07 01:23:23;;;;;;;3.05;1.25;;;;;;;0.30;53.16;98555.63;5014015;28;20447;-60
2022/03/07 01:25:50;;;;;;;3.33;1.10;;;;;;;0.31;53.05;98549.03;5041253;28;20135;-60
2022/03/07 01:28:20;;;;;;;1.35;0.90;;;;;;;0.36;53.00;98551.72;5036355;28;20420;-60
2022/03/07 01:30:48;;;;;;;2.08;1.17;;;;;;;0.34;52.77;98556.66;5042669;28;20053;-61
2022/03/07 01:33:15;;;;;;;6.93;1.30;;;;;;;0.34;53.18;98551.19;5034239;28;20148;-61
2022/03/07 01:35:42;;;;;;;1.92;1.00;;;;;;;0.36;53.02;98546.25;5032589;28;20049;-61
2022/03/07 01:38:09;;;;;;;1.88;1.02;;;;;;;0.39;52.94;98544.84;5035215;28;20061;-61
2022/03/07 01:40:37;;;;;;;5.82;1.25;;;;;;;0.42;52.56;98550.56;5033146;28;20504;-63
2022/03/07 01:43:06;;;;;;;4.32;1.20;;;;;;;0.38;52.95;98543.22;5034983;28;20141;-64
2022/03/07 01:45:33;;;;;;;3.05;1.10;;;;;;;0.39;52.85;98551.13;5034717;28;20053;-63
2022/03/07 01:48:01;;;;;;;2.20;1.20;;;;;;;0.41;52.58;98543.44;5034880;28;20045;-63
2022/03/07 01:50:28;;;;;;;2.33;1.10;;;;;;;0.41;52.97;98548.13;5034433;28;20136;-64
2022/03/07 01:52:55;;;;;;;1.83;0.90;;;;;;;0.41;52.90;98554.38;5035204;28;20148;-60
2022/03/07 01:55:22;;;;;;;1.05;0.82;;;;;;;0.40;52.83;98552.75;5034256;28;20460;-60
2022/03/07 01:57:49;;;;;;;2.17;1.05;;;;;;;0.42;52.76;98550.56;5034776;28;20084;-59
2022/03/07 02:00:23;;;;;;;1.38;0.80;;;;;;;0.44;52.80;98548.31;5046819;28;20224;-60
2022/03/07 02:02:50;;;;;;;1.52;0.80;;;;;;;0.43;52.60;98548.63;5034256;28;20049;-60
2022/03/07 02:05:18;;;;;;;2.17;1.00;;;;;;;0.42;52.91;98545.09;5037914;28;20057;-61
2022/03/07 02:07:45;;;;;;;1.92;1.10;;;;;;;0.47;52.43;98547.75;5040476;28;20132;-60
2022/03/07 02:10:12;;;;;;;2.83;1.05;;;;;;;0.46;52.73;98545.28;5032807;28;20072;-61
2022/03/07 02:12:40;;;;;;;1.83;1.00;;;;;;;0.44;52.77;98548.31;5034215;28;20137;-60
2022/03/07 02:15:07;;;;;;;1.45;0.90;;;;;;;0.39;53.09;98556.59;5032755;28;20053;-61
2022/03/07 02:17:35;;;;;;;3.58;1.00;;;;;;;0.32;52.59;98549.84;5037837;28;20124;-61
2022/03/07 02:20:04;;;;;;;2.17;1.10;;;;;;;0.33;53.36;98552.31;5047995;28;20049;-60
2022/03/07 02:22:31;;;;;;;0.75;0.73;;;;;;;0.36;53.12;98553.63;5033724;28;20426;-60
2022/03/07 02:24:58;;;;;;;2.15;1.30;;;;;;;0.37;53.08;98561.53;5033862;28;20107;-61
2022/03/07 02:27:25;;;;;;;4.13;1.02;;;;;;;0.39;52.96;98562.09;5033721;28;20077;-60
2022/03/07 02:29:52;;;;;;;4.30;1.08;;;;;;;0.42;52.82;98561.50;5033863;28;20176;-60
2022/03/07 02:32:20;;;;;;;3.22;1.20;;;;;;;0.43;52.80;98562.28;5033512;28;20055;-61
2022/03/07 02:34:48;;;;;;;5.35;1.35;;;;;;;0.44;52.78;98564.75;5033637;28;20140;-60
2022/03/07 02:37:15;;;;;;;4.75;1.20;;;;;;;0.39;53.09;98559.34;5033497;28;20412;-60
2022/03/07 02:39:43;;;;;;;5.03;1.20;;;;;;;0.39;53.15;98564.81;5033893;28;20057;-60
2022/03/07 02:42:30;;;;;;;3.05;1.17;;;;;;;0.43;53.20;98573.22;5026755;28;20569;-60
2022/03/07 02:44:57;;;;;;;3.05;1.50;;;;;;;0.42;53.09;98564.22;5033440;28;20135;-60
2022/03/07 02:47:24;;;;;;;2.08;1.20;;;;;;;0.44;53.20;98567.47;5033522;28;20053;-66
2022/03/07 02:49:52;;;;;;;3.33;1.30;;;;;;;0.49;53.00;98564.69;5015611;28;20053;-66
2022/03/07 02:52:19;;;;;;;1.52;0.98;;;;;;;0.46;53.05;98565.28;5036233;28;20534;-66
2022/03/07 02:54:46;;;;;;;4.43;1.70;;;;;;;0.46;52.92;98565.28;5050687;28;20052;-67
2022/03/07 02:57:13;;;;;;;2.13;1.20;;;;;;;0.48;53.21;98563.06;5041483;28;20041;-59
2022/03/07 02:59:40;;;;;;;2.50;1.13;;;;;;;0.49;53.05;98570.16;5033572;28;20516;-59
2022/03/07 03:02:07;;;;;;;2.42;1.30;;;;;;;0.49;53.08;98567.41;5045622;28;20465;-59
2022/03/07 03:04:35;;;;;;;1.90;1.05;;;;;;;0.50;53.26;98569.03;5040757;28;20056;-59
2022/03/07 03:07:02;;;;;;;3.05;1.08;;;;;;;0.47;53.40;98566.09;5015563;28;20080;-61
2022/03/07 03:09:29;;;;;;;2.35;1.20;;;;;;;0.46;52.96;98573.47;5032932;28;20049;-59
2022/03/07 03:11:56;;;;;;;2.03;1.10;;;;;;;0.43;53.09;98559.56;5015842;28;20049;-63
2022/03/07 03:14:23;;;;;;;2.72;1.27;;;;;;;0.45;53.32;98566.38;5043574;28;20144;-59
2022/03/07 03:16:51;;;;;;;3.50;1.30;;;;;;;0.46;53.30;98565.28;5034489;28;20081;-59
2022/03/07 03:19:20;;;;;;;1.58;1.10;;;;;;;0.49;53.13;98567.41;5039570;28;20509;-59
2022/03/07 03:21:47;;;;;;;2.55;1.27;;;;;;;0.49;53.20;98561.94;5032934;28;20045;-56
2022/03/07 03:24:14;;;;;;;6.55;1.20;;;;;;;0.45;53.30;98560.91;5032378;28;20061;-60
2022/03/07 03:26:41;;;;;;;2.22;1.17;;;;;;;0.43;53.58;98562.28;5033328;28;21011;-60
2022/03/07 03:29:08;;;;;;;8.77;1.42;;;;;;;0.43;53.74;98565.84;5032660;28;20080;-60
2022/03/07 03:31:35;;;;;;;3.13;1.08;;;;;;;0.38;53.51;98559.63;5033261;28;20504;-58
2022/03/07 03:34:03;;;;;;;3.35;1.40;;;;;;;0.43;53.92;98563.13;5032472;28;20065;-59
2022/03/07 03:36:30;;;;;;;1.88;0.80;;;;;;;0.40;53.55;98566.44;5033456;28;20099;-58
2022/03/07 03:38:57;;;;;;;3.60;1.40;;;;;;;0.42;53.65;98557.94;5032373;28;20636;-59
2022/03/07 03:41:24;;;;;;;2.30;1.23;;;;;;;0.40;53.91;98560.97;5041337;28;20049;-58
2022/03/07 03:43:51;;;;;;;3.67;1.50;;;;;;;0.37;54.17;98557.97;5032444;28;20054;-59
2022/03/07 03:46:18;;;;;;;2.40;1.15;;;;;;;0.37;53.84;98556.06;5032555;28;20132;-59
2022/03/07 03:48:45;;;;;;;2.53;1.17;;;;;;;0.39;54.19;98550.31;5045404;28;20501;-57
2022/03/07 03:51:12;;;;;;;1.95;1.05;;;;;;;0.40;53.84;98557.41;5032594;28;20132;-57
2022/03/07 03:53:39;;;;;;;1.70;1.10;;;;;;;0.36;53.87;98550.91;5041128;28;20493;-60
2022/03/07 03:56:06;;;;;;;1.27;0.80;;;;;;;0.31;54.29;98554.50;5032567;28;20057;-60
2022/03/07 03:58:34;;;;;;;3.72;1.20;;;;;;;0.30;54.22;98558.34;5035571;28;20579;-58
2022/03/07 04:01:03;;;;;;;2.50;1.20;;;;;;;0.33;54.10;98548.75;5036594;28;20060;-60
2022/03/07 04:03:31;;;;;;;2.67;1.20;;;;;;;0.35;53.92;98547.34;5036630;28;20416;-59
2022/03/07 04:05:58;;;;;;;1.65;1.15;;;;;;;0.35;54.34;98550.06;5036408;28;20060;-60
2022/03/07 04:08:25;;;;;;;4.38;1.20;;;;;;;0.34;54.36;98553.09;5036452;28;20207;-54
2022/03/07 04:10:52;;;;;;;3.85;1.17;;;;;;;0.36;54.59;98562.66;5036301;28;20049;-60
2022/03/07 04:13:19;;;;;;;3.08;1.30;;;;;;;0.37;54.23;98558.81;5036337;28;20049;-59
2022/03/07 04:15:48;;;;;;;3.08;1.30;;;;;;;0.36;54.41;98557.19;5036186;28;20053;-57
2022/03/07 04:18:15;;;;;;;2.55;1.30;;;;;;;0.40;54.19;98558.22;5044771;28;20412;-60
2022/03/07 04:20:43;;;;;;;4.50;1.30;;;;;;;0.43;54.16;98560.38;5048156;28;20136;-59
2022/03/07 04:23:10;;;;;;;4.57;1.70;;;;;;;0.45;53.91;98552.72;5035813;28;20437;-61
2022/03/07 04:25:37;;;;;;;5.28;1.63;;;;;;;0.50;54.11;98558.09;5035848;28;20140;-61
2022/03/07 04:28:05;;;;;;;2.95;1.45;;;;;;;0.52;53.85;98561.38;5035588;28;20140;-61
2022/03/07 04:30:33;;;;;;;2.33;1.25;;;;;;;0.49;54.14;98561.94;5036273;28;20501;-61
2022/03/07 04:33:00;;;;;;;2.20;1.52;;;;;;;0.50;53.87;98558.09;5035545;28;20053;-60
2022/03/07 04:35:27;;;;;;;3.13;1.40;;;;;;;0.51;54.06;98557.00;5036587;28;20045;-61
2022/03/07 04:37:54;;;;;;;4.28;1.20;;;;;;;0.53;54.16;98557.53;5036167;28;20136;-61
2022/03/07 04:40:21;;;;;;;1.98;1.23;;;;;;;0.54;53.78;98558.34;5037408;28;20132;-61
2022/03/07 04:42:48;;;;;;;2.05;1.30;;;;;;;0.54;54.14;98559.16;5035444;28;20499;-63
2022/03/07 04:45:15;;;;;;;2.15;1.23;;;;;;;0.54;54.28;98552.88;5035702;28;20053;-61
2022/03/07 04:47:42;;;;;;;2.53;1.33;;;;;;;0.54;53.96;98558.34;5035506;28;20053;-60
2022/03/07 04:50:12;;;;;;;9.13;1.48;;;;;;;0.59;53.92;98561.81;5035678;28;20057;-62
2022/03/07 04:52:41;;;;;;;;;;;;;;;0.57;53.93;98552.28;5036299;28;20049;-61
2022/03/07 04:55:11;;;;;;;1.92;1.08;;;;;;;0.58;53.93;98559.38;5035829;28;19925;-60
2022/03/07 04:57:38;;;;;;;1.80;1.02;;;;;;;0.59;53.73;98553.59;5035682;28;20049;-62
2022/03/07 05:00:08;;;;;;;5.65;1.85;;;;;;;0.60;53.68;98558.00;5036092;28;20056;-60
2022/03/07 05:02:35;;;;;;;2.25;1.30;;;;;;;0.63;54.10;98557.41;5043744;28;20061;-61
2022/03/07 05:05:02;;;;;;;2.85;1.33;;;;;;;0.65;53.81;98552.44;5043685;28;20140;-60
2022/03/07 05:07:29;;;;;;;6.55;1.67;;;;;;;0.62;53.70;98549.50;5048128;28;20050;-61
2022/03/07 05:09:56;;;;;;;3.35;1.83;;;;;;;0.63;53.90;98551.94;5033913;28;20496;-67
2022/03/07 05:12:23;;;;;;;6.95;1.60;;;;;;;0.68;53.90;98554.59;5048146;28;20148;-61
2022/03/07 05:14:50;;;;;;;2.65;1.23;;;;;;;0.70;53.76;98552.38;5034887;28;20053;-61
2022/03/07 05:17:17;;;;;;;4.45;1.60;;;;;;;0.69;53.83;98550.78;5037115;28;20512;-61
2022/03/07 05:19:47;;;;;;;14.40;1.75;;;;;;;0.70;53.69;98551.56;5053489;28;20135;-63
2022/03/07 05:22:15;;;;;;;2.42;1.27;;;;;;;0.71;53.51;98554.00;5036212;28;20087;-62
2022/03/07 05:24:42;;;;;;;6.30;1.20;;;;;;;0.72;53.58;98558.41;5042993;28;20065;-60
2022/03/07 05:27:09;;;;;;;2.15;1.30;;;;;;;0.73;53.90;98568.22;5043644;28;20077;-61
2022/03/07 05:29:37;;;;;;;5.43;2.30;;;;;;;0.76;53.87;98555.88;5034642;28;20072;-61
2022/03/07 05:32:04;;;;;;;3.92;1.60;;;;;;;0.76;53.91;98564.91;5037399;28;20053;-60
2022/03/07 05:34:31;;;;;;;3.70;1.40;;;;;;;0.74;53.67;98561.63;5044612;28;20091;-61
2022/03/07 05:36:58;;;;;;;13.27;1.55;;;;;;;0.78;53.69;98581.84;5035054;28;20132;-61
2022/03/07 05:39:25;;;;;;;3.33;1.40;;;;;;;0.82;53.61;98563.72;5017280;28;20064;-61
2022/03/07 05:41:52;;;;;;;5.43;1.48;;;;;;;0.86;53.69;98566.69;5035176;28;20139;-61
2022/03/07 05:44:19;;;;;;;8.38;1.60;;;;;;;0.86;53.92;98567.50;5034218;28;20060;-61
2022/03/07 05:46:46;;;;;;;2.53;1.38;;;;;;;0.80;53.50;98552.25;5035038;28;20049;-60
2022/03/07 05:49:13;;;;;;;2.55;1.52;;;;;;;0.82;53.82;98561.00;5034135;28;20085;-63
2022/03/07 05:51:42;;;;;;;4.90;1.52;;;;;;;0.84;53.71;98563.44;5034616;28;20073;-60
2022/03/07 05:54:09;;;;;;;2.17;1.38;;;;;;;0.80;53.67;98563.19;5047473;28;20103;-61
2022/03/07 05:56:35;;;;;;;7.45;1.33;;;;;;;0.83;53.37;98564.56;5042005;28;20145;-61
2022/03/07 05:59:03;;;;;;;1.90;1.27;;;;;;;0.80;53.75;98567.88;5034387;28;20484;-61
2022/03/07 06:01:30;;;;;;;5.47;1.77;;;;;;;0.83;53.47;98576.28;5034567;28;20449;-60
2022/03/07 06:03:57;;;;;;;9.75;1.50;;;;;;;0.84;53.88;98575.22;5034373;28;20057;-61
2022/03/07 06:06:24;;;;;;;3.47;1.98;;;;;;;0.88;53.85;98575.41;5053093;28;20484;-61
2022/03/07 06:08:51;;;;;;;4.45;1.42;;;;;;;0.88;53.74;98575.41;5037003;28;20059;-61
2022/03/07 06:11:18;;;;;;;4.35;1.20;;;;;;;0.89;52.95;98569.66;5033975;28;20045;-62
2022/03/07 06:13:46;;;;;;;3.97;1.73;;;;;;;0.89;53.37;98580.59;5034169;28;20430;-60
2022/03/07 06:16:13;;;;;;;8.57;1.40;;;;;;;0.89;53.64;98577.84;5034118;28;20095;-61
2022/03/07 06:18:40;;;;;;;6.47;1.65;;;;;;;0.93;53.55;98573.44;5034186;28;20050;-61
2022/03/07 06:21:08;;;;;;;4.82;1.85;;;;;;;0.94;53.30;98577.81;5033302;28;20053;-61
2022/03/07 06:23:36;;;;;;;6.38;1.58;;;;;;;0.93;53.40;98584.41;5033551;28;20147;-60
2022/03/07 06:26:07;;;;;;;10.40;2.38;;;;;;;0.98;53.48;98580.78;5046263;28;20050;-62
2022/03/07 06:28:34;;;;;;;4.38;1.60;;;;;;;0.95;53.12;98584.91;5033488;28;20137;-61
2022/03/07 06:31:02;;;;;;;2.70;1.40;;;;;;;0.93;53.28;98589.03;5033231;28;20045;-60
2022/03/07 06:33:29;;;;;;;2.55;1.70;;;;;;;0.97;53.27;98585.44;5033430;28;20049;-60
2022/03/07 06:35:56;;;;;;;5.88;2.13;;;;;;;1.01;52.85;98588.41;5033859;28;20061;-61
2022/03/07 06:38:23;;;;;;;3.30;1.60;;;;;;;1.03;52.68;98589.72;5033491;28;20077;-61
2022/03/07 06:40:51;;;;;;;3.08;1.20;;;;;;;1.05;52.95;98592.16;5016113;28;20073;-62
2022/03/07 06:43:18;;;;;;;7.47;1.80;;;;;;;1.04;53.25;98591.34;5015443;28;20060;-60
2022/03/07 06:45:45;;;;;;;3.28;1.67;;;;;;;1.09;52.56;98594.03;5033844;28;20140;-63
2022/03/07 06:48:12;;;;;;;5.35;1.50;;;;;;;1.12;52.61;98593.44;5033055;28;20474;-61
2022/03/07 06:50:40;;;;;;;7.95;1.98;;;;;;;1.15;52.70;98595.59;5033803;28;20083;-61
2022/03/07 06:53:07;;;;;;;18.33;2.53;;;;;;;1.16;52.25;98594.47;5050163;28;20049;-61
2022/03/07 06:55:34;;;;;;;6.63;1.65;;;;;;;1.16;52.29;98589.00;5036785;28;20595;-62
2022/03/07 06:58:01;;;;;;;6.57;1.80;;;;;;;1.18;52.62;98603.22;5036549;28;20123;-61
2022/03/07 07:00:29;;;;;;;4.85;1.60;;;;;;;1.19;51.90;98601.31;5020438;28;20577;-62
2022/03/07 07:02:57;;;;;;;11.32;1.98;;;;;;;1.14;52.60;98601.34;5033310;28;20055;-61
2022/03/07 07:05:24;;;;;;;12.48;1.42;;;;;;;1.15;52.49;98597.50;5016169;28;20057;-60
2022/03/07 07:07:51;;;;;;;5.72;1.70;;;;;;;1.18;52.32;98592.25;5032884;28;20055;-61
2022/03/07 07:10:21;;;;;;;7.47;2.10;;;;;;;1.24;52.42;98595.72;5033141;28;20489;-62
2022/03/07 07:12:49;;;;;;;4.93;1.83;;;;;;;1.26;52.26;98601.75;5044491;28;20049;-62
2022/03/07 07:15:17;;;;;;;6.25;1.75;;;;;;;1.29;52.40;98595.66;5032776;28;20467;-62
2022/03/07 07:17:45;;;;;;;6.28;1.75;;;;;;;1.27;52.14;98601.44;5045777;28;20144;-61
2022/03/07 07:20:13;;;;;;;9.90;2.10;;;;;;;1.29;52.72;98599.22;5032753;28;20087;-61
2022/03/07 07:22:40;;;;;;;6.28;1.75;;;;;;;1.33;52.40;98589.31;5033257;28;20152;-61
2022/03/07 07:25:09;;;;;;;5.65;1.70;;;;;;;1.37;52.43;98589.53;5032557;28;20045;-61
2022/03/07 07:27:38;;;;;;;3.83;1.67;;;;;;;1.35;52.30;98595.31;5032834;28;20101;-59
2022/03/07 07:30:07;;;;;;;4.57;1.75;;;;;;;1.39;52.43;98581.84;5032432;28;20471;-61
2022/03/07 07:32:35;;;;;;;8.27;1.73;;;;;;;1.37;52.31;98595.84;5032238;28;20136;-61
2022/03/07 07:35:02;;;;;;;6.50;2.10;;;;;;;1.36;52.39;98585.97;5032991;28;20057;-62
2022/03/07 07:37:29;;;;;;;3.55;1.77;;;;;;;1.33;52.63;98588.50;5033174;28;20136;-62
2022/03/07 07:39:56;;;;;;;4.90;2.00;;;;;;;1.32;52.28;98582.19;5037468;28;20041;-61
2022/03/07 07:42:23;;;;;;;6.50;2.25;;;;;;;1.43;52.46;98583.69;5048128;28;20073;-61
2022/03/07 07:44:50;;;;;;;3.47;1.50;;;;;;;1.54;52.48;98579.66;5032334;28;20456;-65
2022/03/07 07:47:17;;;;;;;2.95;1.52;;;;;;;1.65;51.72;98592.09;5014850;28;20068;-65
2022/03/07 07:49:44;;;;;;;2.13;1.38;;;;;;;1.80;52.01;98589.13;5035602;28;20037;-65
2022/03/07 07:52:11;;;;;;;6.65;1.33;;;;;;;1.98;51.25;98584.69;5037786;28;20571;-64
2022/03/07 07:54:38;;;;;;;5.78;1.58;;;;;;;2.04;50.78;98596.41;5040452;28;20128;-62
2022/03/07 07:57:07;;;;;;;2.78;1.40;;;;;;;2.05;51.36;98595.28;5032877;28;20057;-57
2022/03/07 07:59:34;;;;;;;5.70;1.70;;;;;;;2.08;51.12;98589.22;5044729;28;20099;-68
2022/03/07 08:02:13;;;;;;;3.83;1.48;;;;;;;2.08;51.26;98590.03;5032765;28;20127;-68
2022/03/07 08:04:40;;;;;;;1.75;1.35;;;;;;;2.09;50.98;98585.34;5014368;28;20064;-68
2022/03/07 08:07:07;;;;;;;3.80;1.70;;;;;;;2.13;51.25;98592.66;5033343;28;20136;-61
2022/03/07 08:09:35;;;;;;;3.15;1.48;;;;;;;2.34;50.56;98598.63;5031850;28;20143;-68
2022/03/07 08:12:02;;;;;;;3.85;1.55;;;;;;;2.50;50.49;98587.06;5032723;28;20107;-67
2022/03/07 08:14:29;;;;;;;11.43;2.50;;;;;;;2.59;50.11;98578.91;5032174;28;20172;-67
2022/03/07 08:16:56;;;;;;;3.70;1.25;;;;;;;2.61;49.92;98580.25;5039762;28;20053;-68
2022/03/07 08:19:23;;;;;;;3.63;1.50;;;;;;;2.59;49.63;98574.25;5045903;28;20564;-67
2022/03/07 08:21:52;;;;;;;7.05;1.85;;;;;;;2.71;49.61;98579.22;5032444;28;20055;-66
2022/03/07 08:24:19;;;;;;;6.07;1.52;;;;;;;2.75;49.66;98580.25;5032302;28;20144;-68
2022/03/07 08:26:46;;;;;;;5.32;1.60;;;;;;;2.70;50.00;98581.19;5032498;28;20550;-61
2022/03/07 08:29:13;;;;;;;4.45;2.05;;;;;;;2.65;49.87;98583.19;5032146;28;20037;-61
2022/03/07 08:31:40;;;;;;;6.65;1.52;;;;;;;2.84;49.57;98579.22;5031986;28;20141;-62
2022/03/07 08:34:07;;;;;;;7.95;1.90;;;;;;;3.02;49.42;98589.28;5040554;28;20160;-62
2022/03/07 08:36:34;;;;;;;6.78;2.65;;;;;;;3.24;48.50;98580.28;5031991;28;20042;-64
2022/03/07 08:39:01;;;;;;;3.15;1.30;;;;;;;3.33;48.25;98578.44;5015229;28;20123;-64
2022/03/07 08:41:28;;;;;;;4.40;1.70;;;;;;;3.40;48.23;98584.31;4997723;28;20046;-65
2022/03/07 08:43:55;;;;;;;2.63;1.33;;;;;;;3.58;47.53;98577.84;5033961;28;20065;-64
2022/03/07 08:46:24;;;;;;;3.58;1.40;;;;;;;3.70;47.42;98586.38;5017668;28;20049;-64
2022/03/07 08:48:52;;;;;;;6.38;1.70;;;;;;;3.87;46.91;98580.22;5035851;28;20064;-64
2022/03/07 08:51:19;;;;;;;9.65;1.60;;;;;;;3.91;46.78;98587.53;5047697;28;20464;-63
2022/03/07 08:53:46;;;;;;;9.18;1.65;;;;;;;4.04;46.77;98572.88;5020963;28;20072;-65
2022/03/07 08:56:14;;;;;;;2.58;1.48;;;;;;;4.26;46.39;98591.31;5030660;28;20060;-63
2022/03/07 08:58:53;;;;;;;4.47;1.27;;;;;;;4.22;45.53;98579.28;5017696;28;20160;-64
2022/03/07 09:01:20;;;;;;;3.20;1.25;;;;;;;4.24;46.15;98577.88;5035020;28;20045;-64
2022/03/07 09:03:47;;;;;;;5.75;1.27;;;;;;;4.07;46.14;98577.75;5035052;28;20053;-64
2022/03/07 09:06:16;;;;;;;2.78;1.30;;;;;;;3.94;46.35;98573.16;5017524;28;20060;-64
2022/03/07 09:08:43;;;;;;;2.20;1.30;;;;;;;4.06;46.29;98569.81;5035236;28;20135;-64
2022/03/07 09:11:10;;;;;;;3.05;1.20;;;;;;;4.48;45.45;98567.31;5017688;28;20145;-65
2022/03/07 09:13:37;;;;;;;4.10;1.17;;;;;;;5.23;43.93;98567.88;5035507;28;20099;-64
2022/03/07 09:16:05;;;;;;;3.45;1.40;;;;;;;6.06;42.95;98569.38;5035727;28;20049;-64
2022/03/07 09:18:32;;;;;;;5.07;1.40;;;;;;;6.39;41.84;98566.88;5034903;28;20148;-64
2022/03/07 09:20:59;;;;;;;3.70;1.67;;;;;;;6.54;41.52;98564.41;5035190;28;20081;-65
2022/03/07 09:23:28;;;;;;;3.97;1.20;;;;;;;6.51;41.87;98575.31;5034695;28;20079;-64
2022/03/07 09:25:55;;;;;;;5.03;1.30;;;;;;;6.63;41.51;98572.69;5018532;28;20076;-65
2022/03/07 09:28:22;;;;;;;3.10;1.42;;;;;;;6.89;40.47;98576.13;5034952;28;20053;-64
2022/03/07 09:30:49;;;;;;;2.20;1.13;;;;;;;7.93;39.02;98572.38;5034895;28;20049;-62
2022/03/07 09:33:17;;;;;;;3.47;1.65;;;;;;;8.37;38.40;98566.91;5034862;28;20539;-62
2022/03/07 09:35:43;;;;;;;7.03;1.25;;;;;;;8.63;38.39;98567.47;5034802;28;20540;-61
2022/03/07 09:38:11;;;;;;;8.40;1.35;;;;;;;8.20;38.07;98577.34;5034108;28;20618;-60
2022/03/07 09:40:38;;;;;;;5.43;1.73;;;;;;;8.59;37.43;98565.72;5034672;28;20132;-61
2022/03/07 09:43:06;;;;;;;9.02;2.42;;;;;;;11.36;33.39;98565.63;5048270;28;20199;-62
2022/03/07 09:45:33;;;;;;;3.60;1.80;;;;;;;13.76;29.88;98560.78;5041356;28;20049;-63
2022/03/07 09:48:01;;;;;;;3.35;1.60;;;;;;;16.69;27.20;98546.25;5035654;28;20412;-63
2022/03/07 09:50:28;;;;;;;3.75;1.63;;;;;;;19.21;24.01;98554.16;5053096;28;20451;-64
2022/03/07 09:53:00;;;;;;;3.80;1.33;;;;;;;17.17;25.14;98561.59;5034703;28;20136;-64
2022/03/07 09:55:28;;;;;;;4.32;1.33;;;;;;;14.53;27.97;98561.81;5037597;28;20057;-64
2022/03/07 09:57:55;;;;;;;3.53;1.30;;;;;;;12.27;30.23;98550.97;5034611;28;20064;-64
2022/03/07 10:00:22;;;;;;;7.65;1.60;;;;;;;10.96;31.87;98551.13;5034564;28;20476;-64
2022/03/07 10:03:09;;;;;;;7.43;1.42;;;;;;;9.62;33.68;98556.81;5034635;28;20084;-65
2022/03/07 10:05:43;;;;;;;5.00;1.52;;;;;;;8.78;34.51;98555.69;5034015;28;20128;-64
2022/03/07 10:08:22;;;;;;;10.65;1.88;;;;;;;7.93;35.84;98556.56;5051164;28;20049;-65
2022/03/07 10:10:52;;;;;;;3.08;1.15;;;;;;;7.16;36.63;98567.38;5051564;28;20080;-63
2022/03/07 10:13:20;;;;;;;4.28;1.10;;;;;;;6.61;37.82;98552.84;5041944;28;20049;-64
2022/03/07 10:16:14;;;;;;;2.63;1.00;;;;;;;6.10;38.10;98562.06;5016363;28;20523;-64
2022/03/07 10:18:48;;;;;;;4.55;1.10;;;;;;;5.83;38.54;98558.88;5037790;28;20417;-64
2022/03/07 10:21:25;;;;;;;8.50;1.02;;;;;;;5.64;39.13;98565.50;5034007;28;20133;-66
2022/03/07 10:23:53;;;;;;;1.45;0.90;;;;;;;5.48;39.18;98558.03;5033254;28;20381;-63
2022/03/07 10:26:22;;;;;;;3.10;1.13;;;;;;;5.45;39.33;98564.19;5033649;28;20058;-63
2022/03/07 10:28:57;;;;;;;4.93;1.20;;;;;;;5.44;39.49;98552.34;5033385;28;20099;-64
2022/03/07 10:31:47;;;;;;;5.70;1.20;;;;;;;5.41;39.17;98568.72;5041536;28;20057;-65
2022/03/07 10:34:14;;;;;;;;;;;;;;;5.35;39.16;98568.06;5034426;28;20053;-65
2022/03/07 10:36:43;;;;;;;7.28;1.00;;;;;;;5.37;39.12;98563.06;5041432;28;19925;-60
2022/03/07 10:39:12;;;;;;;6.45;1.10;;;;;;;5.29;40.00;98565.78;5016194;28;20550;-62
2022/03/07 10:41:45;;;;;;;3.28;1.33;;;;;;;5.31;39.10;98564.34;5033688;28;20047;-60
2022/03/07 10:44:26;;;;;;;4.43;1.48;;;;;;;5.42;39.57;98562.88;5033650;28;20148;-61
2022/03/07 10:46:53;;;;;;;1.98;1.40;;;;;;;5.40;38.75;98564.34;5041333;28;20107;-61
2022/03/07 10:49:20;;;;;;;11.45;1.23;;;;;;;5.20;39.17;98553.91;5043414;28;20504;-60
2022/03/07 10:51:52;;;;;;;2.58;1.27;;;;;;;4.93;39.57;98565.22;5033208;28;20052;-62
2022/03/07 10:54:21;;;;;;;3.22;1.30;;;;;;;4.76;40.63;98565.97;5033426;28;20148;-62
2022/03/07 10:56:53;;;;;;;1.67;1.05;;;;;;;4.58;40.84;98572.53;5033183;28;20049;-61
2022/03/07 10:59:31;;;;;;;3.53;1.17;;;;;;;4.26;41.63;98574.81;5033345;28;20136;-62
2022/03/07 11:02:06;;;;;;;2.60;1.00;;;;;;;4.10;41.58;98571.63;5033503;28;20050;-62
2022/03/07 11:04:34;;;;;;;8.32;1.15;;;;;;;3.95;41.94;98560.19;5033585;28;20512;-63
2022/03/07 11:07:01;;;;;;;6.70;1.52;;;;;;;3.86;42.29;98565.63;5033348;28;20140;-61
2022/03/07 11:09:28;;;;;;;3.20;1.00;;;;;;;3.83;42.33;98559.94;5033147;28;20065;-60
2022/03/07 11:11:55;;;;;;;47.42;16.45;;;;;;;3.82;42.23;98564.63;5033174;28;20462;-61
2022/03/07 11:14:24;;;;;;;3.08;1.30;;;;;;;3.88;41.85;98563.41;5033094;28;20080;-61
2022/03/07 11:16:56;;;;;;;3.95;1.50;;;;;;;3.91;41.92;98560.00;5033282;28;20084;-62
2022/03/07 11:19:25;;;;;;;3.45;1.33;;;;;;;3.92;42.11;98556.13;5045884;28;20084;-61
2022/03/07 11:21:54;;;;;;;3.25;1.50;;;;;;;3.93;42.12;98556.94;5032858;28;20076;-58
2022/03/07 11:24:23;;;;;;;2.47;1.65;;;;;;;4.03;41.98;98559.44;5033295;28;20081;-62
2022/03/07 11:26:54;;;;;;;4.57;1.48;;;;;;;4.03;42.22;98560.25;5032723;28;20057;-60
2022/03/07 11:29:39;;;;;;;4.93;1.33;;;;;;;4.04;42.00;98561.88;5033190;28;20134;-62
2022/03/07 11:32:14;;;;;;;2.10;0.95;;;;;;;4.00;42.31;98558.13;5032766;28;20061;-62
2022/03/07 11:34:55;;;;;;;3.40;1.38;;;;;;;3.99;42.58;98553.75;5015853;28;20045;-60
2022/03/07 11:37:27;;;;;;;15.55;3.45;;;;;;;4.09;42.01;98563.69;5015113;28;20095;-61
2022/03/07 11:39:58;;;;;;;6.35;2.25;;;;;;;4.17;42.14;98566.47;5015937;28;20084;-62
2022/03/07 11:42:38;;;;;;;7.90;1.40;;;;;;;4.25;41.75;98565.72;5032397;28;20060;-61
2022/03/07 11:45:08;;;;;;;4.10;1.20;;;;;;;4.18;42.21;98570.88;5035854;28;20579;-60